Currently 40°F in Anza, California, USA
40°F
47°F / 35°F
calm
0.76"
Wednesday, April 8, 2020 6:46 PM PDT

Anza, California Weather Summary
Last 36 Hours

Temperature Winds Hourly Humidity Dewpoint
Time Report Norm Report Norm Max Gusts Precip. Rpt. Norm Rpt. Norm Pressure
1Wed 06:46 PM  40.0°F  59°F  calm  8 mph  none  0.00"  97%  58%  39°F  44°F  N/A
Wed 06:00 PM  41.7°F  63°F  calm  9 mph  none  0.02"  97%  51%  41°F  44°F  N/A
Wed 05:00 PM  44.3°F  65°F  calm  11 mph  15 mph  0.02"  96%  46%  43°F  43°F  N/A
Wed 04:00 PM  43.0°F  67°F  calm  10 mph  none  0.01"  95%  43%  42°F  43°F  N/A
Wed 03:00 PM  45.1°F  68°F  calm  10 mph  16 mph  0.00"  89%  40%  42°F  42°F  N/A
Wed 02:00 PM  46.2°F  68°F  calm  11 mph  16 mph  0.00"  86%  39%  42°F  41°F  N/A
2Wed 01:58 PM  46.8°F  68°F  calm  10 mph  none  ----  91%  39%  44°F  41°F  N/A
Wed 01:00 PM  43.0°F  67°F  calm  10 mph  14 mph  0.00"  97%  40%  42°F  41°F  N/A
Wed 12:00 PM  41.4°F  66°F  calm  10 mph  18 mph  0.01"  98%  41%  41°F  41°F  N/A
Wed 11:00 AM  41.6°F  64°F  13 mph W  9 mph  20 mph  0.01"  99%  43%  41°F  41°F  N/A
Wed 10:00 AM  41.0°F  62°F  11 mph NW  8 mph  none  0.00"  99%  47%  41°F  40°F  N/A
Wed 09:00 AM  39.1°F  58°F  calm  7 mph  none  0.00"  99%  55%  39°F  41°F  N/A
Wed 08:00 AM  38.0°F  53°F  calm  5 mph  10 mph  0.05"  99%  66%  38°F  41°F  N/A
3Wed 07:05 AM  34.8°F  46°F  calm  4 mph  none  ----  100%  76%  35°F  38°F  N/A
Wed 07:00 AM  35.0°F  45°F  calm  4 mph  none  0.10"  100%  76%  35°F  38°F  N/A
Wed 06:00 AM  36.7°F  44°F  calm  3 mph  15 mph  0.11"  100%  77%  37°F  37°F  N/A
Wed 05:00 AM  38.4°F  45°F  1 mph W  4 mph  none  0.13"  99%  76%  38°F  38°F  N/A
Wed 04:00 AM  39.4°F  45°F  calm  4 mph  none  0.20"  99%  76%  39°F  38°F  N/A
Wed 03:00 AM  40.8°F  45°F  calm  4 mph  none  0.07"  99%  77%  41°F  38°F  N/A
Wed 02:00 AM  41.7°F  46°F  calm  4 mph  none  0.03"  98%  78%  41°F  39°F  N/A
Wed 01:00 AM  42.5°F  46°F  calm  4 mph  none  0.00"  94%  78%  41°F  39°F  N/A
Wed 12:00 AM  42.4°F  47°F  calm  4 mph  none  0.01"  91%  78%  40°F  40°F  N/A
Tue 11:00 PM  43.3°F  48°F  calm  4 mph  none  0.00"  90%  77%  41°F  41°F  N/A
Tue 10:00 PM  44.1°F  49°F  calm  4 mph  none  0.00"  95%  75%  43°F  41°F  N/A
Tue 09:00 PM  45.0°F  51°F  calm  5 mph  13 mph  0.00"  93%  72%  43°F  42°F  N/A
Tue 08:00 PM  45.4°F  53°F  calm  5 mph  8 mph  0.00"  96%  68%  44°F  43°F  N/A
Tue 07:00 PM  45.5°F  58°F  calm  7 mph  14 mph  0.01"  97%  61%  45°F  44°F  N/A
Tue 06:00 PM  47.5°F  62°F  1 mph SW  10 mph  8 mph  0.13"  100%  52%  47°F  44°F  N/A
Tue 05:00 PM  47.7°F  65°F  calm  11 mph  none  0.10"  99%  47%  48°F  43°F  N/A
Tue 04:00 PM  48.6°F  67°F  calm  10 mph  none  0.11"  99%  43%  48°F  43°F  N/A
Tue 03:00 PM  47.7°F  67°F  calm  10 mph  13 mph  0.15"  99%  41%  47°F  42°F  N/A
Tue 02:00 PM  49.7°F  67°F  8 mph SE  11 mph  12 mph  0.01"  97%  40%  49°F  41°F  N/A
Tue 01:00 PM  49.8°F  67°F  calm  10 mph  none  0.03"  98%  40%  49°F  41°F  N/A
Tue 12:00 PM  49.0°F  66°F  calm  10 mph  none  0.02"  96%  42%  48°F  41°F  N/A
Tue 11:00 AM  48.6°F  64°F  calm  9 mph  none  0.01"  98%  44%  48°F  41°F  N/A
Tue 10:00 AM  49.7°F  61°F  calm  8 mph  none  0.00"  91%  48%  47°F  41°F  N/A
Tue 09:00 AM  48.5°F  58°F  calm  7 mph  none  0.00"  97%  56%  48°F  41°F  N/A
Tue 08:00 AM  45.7°F  52°F  calm  5 mph  none  0.00"  100%  68%  46°F  41°F  N/A
Tue 07:00 AM  42.8°F  45°F  calm  4 mph  none  0.00"  100%  77%  43°F  38°F  N/A

  1. Current weather data. No green row appears if the current weather data is also the high or low for the current day.
  2. High temperature for the current day.
  3. Low temperature for the current day.

The Anza, California weather pages are a service of WeatherCurrents. The Anza Valley is southwestern Riverside County, east of Temecula and Aguanga, south of Mount San Jacinto and west of Mount Santa Rosa.
Copyright ©2020  WeatherCurrents. All rights reserved. - Submit questions and comments - Privacy Policy

This page automatically refreshes every 10 minutes.